sensor_id;sensor_type;location;lat;lon;timestamp;P1;durP1;ratioP1;P2;durP2;ratioP2
11777;SDS011;5946;51.770;8.548;2023-05-07T00:01:35;23.10;;;17.97;;
11777;SDS011;5946;51.770;8.548;2023-05-07T00:04:01;22.47;;;17.03;;
11777;SDS011;5946;51.770;8.548;2023-05-07T00:06:28;25.97;;;18.07;;
11777;SDS011;5946;51.770;8.548;2023-05-07T00:08:54;24.70;;;17.97;;
11777;SDS011;5946;51.770;8.548;2023-05-07T00:11:20;25.13;;;17.97;;
11777;SDS011;5946;51.770;8.548;2023-05-07T00:13:47;25.17;;;18.13;;
11777;SDS011;5946;51.770;8.548;2023-05-07T00:16:13;23.53;;;18.80;;
11777;SDS011;5946;51.770;8.548;2023-05-07T00:18:39;25.67;;;19.30;;
11777;SDS011;5946;51.770;8.548;2023-05-07T00:21:05;25.57;;;19.73;;
11777;SDS011;5946;51.770;8.548;2023-05-07T00:23:31;21.37;;;18.77;;
11777;SDS011;5946;51.770;8.548;2023-05-07T00:25:57;22.00;;;18.73;;
11777;SDS011;5946;51.770;8.548;2023-05-07T00:28:23;24.37;;;20.17;;
11777;SDS011;5946;51.770;8.548;2023-05-07T00:30:49;28.23;;;21.77;;
11777;SDS011;5946;51.770;8.548;2023-05-07T00:33:15;32.20;;;23.07;;
11777;SDS011;5946;51.770;8.548;2023-05-07T00:35:41;28.50;;;23.93;;
11777;SDS011;5946;51.770;8.548;2023-05-07T00:38:07;30.67;;;24.30;;
11777;SDS011;5946;51.770;8.548;2023-05-07T00:40:33;33.13;;;24.80;;
11777;SDS011;5946;51.770;8.548;2023-05-07T00:42:59;30.17;;;24.53;;
11777;SDS011;5946;51.770;8.548;2023-05-07T00:45:26;27.63;;;24.57;;
11777;SDS011;5946;51.770;8.548;2023-05-07T00:47:55;26.83;;;23.50;;
11777;SDS011;5946;51.770;8.548;2023-05-07T00:50:23;32.23;;;26.17;;
11777;SDS011;5946;51.770;8.548;2023-05-07T00:52:49;30.23;;;24.43;;
11777;SDS011;5946;51.770;8.548;2023-05-07T00:55:15;29.67;;;25.40;;
11777;SDS011;5946;51.770;8.548;2023-05-07T00:57:41;32.53;;;25.90;;
11777;SDS011;5946;51.770;8.548;2023-05-07T01:00:08;31.17;;;24.93;;
11777;SDS011;5946;51.770;8.548;2023-05-07T01:02:35;30.70;;;26.13;;
11777;SDS011;5946;51.770;8.548;2023-05-07T01:05:01;31.27;;;25.90;;
11777;SDS011;5946;51.770;8.548;2023-05-07T01:07:28;38.87;;;27.67;;
11777;SDS011;5946;51.770;8.548;2023-05-07T01:09:54;35.67;;;26.33;;
11777;SDS011;5946;51.770;8.548;2023-05-07T01:12:20;32.07;;;26.70;;
11777;SDS011;5946;51.770;8.548;2023-05-07T01:14:46;34.67;;;28.90;;
11777;SDS011;5946;51.770;8.548;2023-05-07T01:17:14;32.47;;;26.43;;
11777;SDS011;5946;51.770;8.548;2023-05-07T01:19:40;35.47;;;28.03;;
11777;SDS011;5946;51.770;8.548;2023-05-07T01:22:08;34.47;;;28.67;;
11777;SDS011;5946;51.770;8.548;2023-05-07T01:24:36;34.47;;;27.43;;
11777;SDS011;5946;51.770;8.548;2023-05-07T01:27:02;34.67;;;26.70;;
11777;SDS011;5946;51.770;8.548;2023-05-07T01:29:28;35.67;;;28.73;;
11777;SDS011;5946;51.770;8.548;2023-05-07T01:31:55;37.70;;;27.77;;
11777;SDS011;5946;51.770;8.548;2023-05-07T01:34:22;36.93;;;28.30;;
11777;SDS011;5946;51.770;8.548;2023-05-07T01:36:49;34.00;;;28.93;;
11777;SDS011;5946;51.770;8.548;2023-05-07T01:39:15;38.13;;;30.43;;
11777;SDS011;5946;51.770;8.548;2023-05-07T01:41:42;37.40;;;27.77;;
11777;SDS011;5946;51.770;8.548;2023-05-07T01:44:08;38.63;;;28.37;;
11777;SDS011;5946;51.770;8.548;2023-05-07T01:46:35;41.53;;;30.30;;
11777;SDS011;5946;51.770;8.548;2023-05-07T01:49:01;35.43;;;28.67;;
11777;SDS011;5946;51.770;8.548;2023-05-07T01:51:27;39.80;;;29.70;;
11777;SDS011;5946;51.770;8.548;2023-05-07T01:53:53;37.83;;;29.40;;
11777;SDS011;5946;51.770;8.548;2023-05-07T01:56:19;37.67;;;29.07;;
11777;SDS011;5946;51.770;8.548;2023-05-07T01:58:45;36.37;;;30.40;;
11777;SDS011;5946;51.770;8.548;2023-05-07T02:01:12;36.37;;;30.43;;
11777;SDS011;5946;51.770;8.548;2023-05-07T02:03:38;37.40;;;30.13;;
11777;SDS011;5946;51.770;8.548;2023-05-07T02:06:04;35.63;;;28.67;;
11777;SDS011;5946;51.770;8.548;2023-05-07T02:08:30;37.70;;;29.43;;
11777;SDS011;5946;51.770;8.548;2023-05-07T02:10:56;34.63;;;29.00;;
11777;SDS011;5946;51.770;8.548;2023-05-07T02:13:22;37.57;;;29.53;;
11777;SDS011;5946;51.770;8.548;2023-05-07T02:15:49;40.93;;;29.53;;
11777;SDS011;5946;51.770;8.548;2023-05-07T02:18:15;36.30;;;30.00;;
11777;SDS011;5946;51.770;8.548;2023-05-07T02:20:42;38.03;;;29.50;;
11777;SDS011;5946;51.770;8.548;2023-05-07T02:23:08;37.27;;;29.90;;
11777;SDS011;5946;51.770;8.548;2023-05-07T02:25:34;35.27;;;28.70;;
11777;SDS011;5946;51.770;8.548;2023-05-07T02:28:00;35.00;;;28.40;;
11777;SDS011;5946;51.770;8.548;2023-05-07T02:30:26;36.73;;;28.47;;
11777;SDS011;5946;51.770;8.548;2023-05-07T02:32:52;33.60;;;27.87;;
11777;SDS011;5946;51.770;8.548;2023-05-07T02:35:18;35.07;;;28.40;;
11777;SDS011;5946;51.770;8.548;2023-05-07T02:37:44;35.57;;;28.90;;
11777;SDS011;5946;51.770;8.548;2023-05-07T02:40:10;33.43;;;26.53;;
11777;SDS011;5946;51.770;8.548;2023-05-07T02:42:36;30.43;;;24.80;;
11777;SDS011;5946;51.770;8.548;2023-05-07T02:45:02;32.87;;;26.80;;
11777;SDS011;5946;51.770;8.548;2023-05-07T02:47:28;35.07;;;27.17;;
11777;SDS011;5946;51.770;8.548;2023-05-07T02:49:55;32.20;;;26.60;;
11777;SDS011;5946;51.770;8.548;2023-05-07T02:52:21;33.00;;;26.73;;
11777;SDS011;5946;51.770;8.548;2023-05-07T02:54:47;30.53;;;25.57;;
11777;SDS011;5946;51.770;8.548;2023-05-07T02:57:13;28.03;;;24.97;;
11777;SDS011;5946;51.770;8.548;2023-05-07T02:59:39;31.07;;;24.63;;
11777;SDS011;5946;51.770;8.548;2023-05-07T03:02:05;31.27;;;26.13;;
11777;SDS011;5946;51.770;8.548;2023-05-07T03:04:31;29.00;;;24.53;;
11777;SDS011;5946;51.770;8.548;2023-05-07T03:06:57;32.00;;;24.37;;
11777;SDS011;5946;51.770;8.548;2023-05-07T03:09:23;30.70;;;24.50;;
11777;SDS011;5946;51.770;8.548;2023-05-07T03:11:49;29.83;;;23.23;;
11777;SDS011;5946;51.770;8.548;2023-05-07T03:14:15;31.50;;;24.67;;
11777;SDS011;5946;51.770;8.548;2023-05-07T03:16:41;31.00;;;24.47;;
11777;SDS011;5946;51.770;8.548;2023-05-07T03:19:07;28.13;;;24.90;;
11777;SDS011;5946;51.770;8.548;2023-05-07T03:21:33;30.53;;;24.53;;
11777;SDS011;5946;51.770;8.548;2023-05-07T03:23:59;30.77;;;24.87;;
11777;SDS011;5946;51.770;8.548;2023-05-07T03:26:25;28.23;;;23.77;;
11777;SDS011;5946;51.770;8.548;2023-05-07T03:28:51;27.30;;;23.90;;
11777;SDS011;5946;51.770;8.548;2023-05-07T03:31:17;30.50;;;25.33;;
11777;SDS011;5946;51.770;8.548;2023-05-07T03:33:53;30.50;;;25.20;;
11777;SDS011;5946;51.770;8.548;2023-05-07T03:36:20;29.57;;;23.70;;
11777;SDS011;5946;51.770;8.548;2023-05-07T03:38:46;29.03;;;25.03;;
11777;SDS011;5946;51.770;8.548;2023-05-07T03:41:12;30.17;;;23.90;;
11777;SDS011;5946;51.770;8.548;2023-05-07T03:43:38;30.80;;;24.33;;
11777;SDS011;5946;51.770;8.548;2023-05-07T03:46:04;31.73;;;25.40;;
11777;SDS011;5946;51.770;8.548;2023-05-07T03:48:30;33.70;;;25.90;;
11777;SDS011;5946;51.770;8.548;2023-05-07T03:50:57;30.33;;;24.90;;
11777;SDS011;5946;51.770;8.548;2023-05-07T03:53:23;31.00;;;25.57;;
11777;SDS011;5946;51.770;8.548;2023-05-07T03:55:49;33.77;;;25.97;;
11777;SDS011;5946;51.770;8.548;2023-05-07T03:58:15;33.17;;;25.90;;
11777;SDS011;5946;51.770;8.548;2023-05-07T04:00:41;33.03;;;26.27;;
11777;SDS011;5946;51.770;8.548;2023-05-07T04:03:07;31.73;;;26.17;;
11777;SDS011;5946;51.770;8.548;2023-05-07T04:05:33;30.20;;;24.90;;
11777;SDS011;5946;51.770;8.548;2023-05-07T04:07:59;32.10;;;26.53;;
11777;SDS011;5946;51.770;8.548;2023-05-07T04:10:25;34.47;;;25.77;;
11777;SDS011;5946;51.770;8.548;2023-05-07T04:12:53;33.33;;;24.93;;
11777;SDS011;5946;51.770;8.548;2023-05-07T04:15:19;34.60;;;26.13;;
11777;SDS011;5946;51.770;8.548;2023-05-07T04:17:45;32.70;;;26.50;;
11777;SDS011;5946;51.770;8.548;2023-05-07T04:20:13;33.27;;;26.93;;
11777;SDS011;5946;51.770;8.548;2023-05-07T04:22:40;35.43;;;26.73;;
11777;SDS011;5946;51.770;8.548;2023-05-07T04:25:06;36.57;;;26.30;;
11777;SDS011;5946;51.770;8.548;2023-05-07T04:27:34;32.83;;;25.80;;
11777;SDS011;5946;51.770;8.548;2023-05-07T04:30:00;33.73;;;25.80;;
11777;SDS011;5946;51.770;8.548;2023-05-07T04:32:26;33.47;;;25.67;;
11777;SDS011;5946;51.770;8.548;2023-05-07T04:34:54;30.87;;;25.80;;
11777;SDS011;5946;51.770;8.548;2023-05-07T04:37:20;33.77;;;26.27;;
11777;SDS011;5946;51.770;8.548;2023-05-07T04:39:46;32.73;;;25.90;;
11777;SDS011;5946;51.770;8.548;2023-05-07T04:42:15;33.83;;;27.33;;
11777;SDS011;5946;51.770;8.548;2023-05-07T04:44:41;32.20;;;25.37;;
11777;SDS011;5946;51.770;8.548;2023-05-07T04:47:07;35.43;;;27.07;;
11777;SDS011;5946;51.770;8.548;2023-05-07T04:49:33;33.07;;;26.80;;
11777;SDS011;5946;51.770;8.548;2023-05-07T04:51:59;37.40;;;26.23;;
11777;SDS011;5946;51.770;8.548;2023-05-07T04:54:26;33.27;;;26.67;;
11777;SDS011;5946;51.770;8.548;2023-05-07T04:56:51;35.93;;;27.17;;
11777;SDS011;5946;51.770;8.548;2023-05-07T04:59:17;34.87;;;26.80;;
11777;SDS011;5946;51.770;8.548;2023-05-07T05:01:43;33.50;;;26.03;;
11777;SDS011;5946;51.770;8.548;2023-05-07T05:04:09;32.60;;;25.97;;
11777;SDS011;5946;51.770;8.548;2023-05-07T05:06:35;32.50;;;25.93;;
11777;SDS011;5946;51.770;8.548;2023-05-07T05:09:01;35.23;;;27.20;;
11777;SDS011;5946;51.770;8.548;2023-05-07T05:11:29;36.33;;;27.03;;
11777;SDS011;5946;51.770;8.548;2023-05-07T05:13:55;33.90;;;25.67;;
11777;SDS011;5946;51.770;8.548;2023-05-07T05:16:21;33.30;;;26.33;;
11777;SDS011;5946;51.770;8.548;2023-05-07T05:18:47;33.07;;;26.03;;
11777;SDS011;5946;51.770;8.548;2023-05-07T05:21:13;35.07;;;26.63;;
11777;SDS011;5946;51.770;8.548;2023-05-07T05:23:39;32.90;;;26.13;;
11777;SDS011;5946;51.770;8.548;2023-05-07T05:26:05;31.83;;;25.20;;
11777;SDS011;5946;51.770;8.548;2023-05-07T05:28:31;33.03;;;25.63;;
11777;SDS011;5946;51.770;8.548;2023-05-07T05:30:57;31.43;;;25.00;;
11777;SDS011;5946;51.770;8.548;2023-05-07T05:33:23;30.47;;;24.67;;
11777;SDS011;5946;51.770;8.548;2023-05-07T05:35:49;30.80;;;24.90;;
11777;SDS011;5946;51.770;8.548;2023-05-07T05:38:15;27.43;;;23.17;;
11777;SDS011;5946;51.770;8.548;2023-05-07T05:40:41;31.33;;;24.67;;
11777;SDS011;5946;51.770;8.548;2023-05-07T05:43:07;32.63;;;23.87;;
11777;SDS011;5946;51.770;8.548;2023-05-07T05:45:33;31.90;;;24.57;;
11777;SDS011;5946;51.770;8.548;2023-05-07T05:48:00;27.93;;;22.77;;
11777;SDS011;5946;51.770;8.548;2023-05-07T05:50:26;31.87;;;24.00;;
11777;SDS011;5946;51.770;8.548;2023-05-07T05:52:52;27.30;;;22.97;;
11777;SDS011;5946;51.770;8.548;2023-05-07T05:55:18;30.00;;;23.13;;
11777;SDS011;5946;51.770;8.548;2023-05-07T05:57:44;31.50;;;23.57;;
11777;SDS011;5946;51.770;8.548;2023-05-07T06:00:10;28.57;;;23.50;;
11777;SDS011;5946;51.770;8.548;2023-05-07T06:02:36;29.27;;;22.17;;
11777;SDS011;5946;51.770;8.548;2023-05-07T06:05:02;27.37;;;22.50;;
11777;SDS011;5946;51.770;8.548;2023-05-07T06:07:28;26.47;;;21.77;;
11777;SDS011;5946;51.770;8.548;2023-05-07T06:09:54;27.10;;;21.37;;
11777;SDS011;5946;51.770;8.548;2023-05-07T06:12:20;26.77;;;22.33;;
11777;SDS011;5946;51.770;8.548;2023-05-07T06:14:46;25.87;;;21.33;;
11777;SDS011;5946;51.770;8.548;2023-05-07T06:17:12;24.97;;;20.97;;
11777;SDS011;5946;51.770;8.548;2023-05-07T06:19:38;24.33;;;20.70;;
11777;SDS011;5946;51.770;8.548;2023-05-07T06:22:04;24.73;;;20.70;;
11777;SDS011;5946;51.770;8.548;2023-05-07T06:24:30;23.67;;;20.80;;
11777;SDS011;5946;51.770;8.548;2023-05-07T06:26:56;23.30;;;19.80;;
11777;SDS011;5946;51.770;8.548;2023-05-07T06:29:23;22.70;;;20.17;;
11777;SDS011;5946;51.770;8.548;2023-05-07T06:31:51;22.77;;;19.57;;
11777;SDS011;5946;51.770;8.548;2023-05-07T06:34:17;27.03;;;19.67;;
11777;SDS011;5946;51.770;8.548;2023-05-07T06:36:43;22.90;;;20.10;;
11777;SDS011;5946;51.770;8.548;2023-05-07T06:39:09;24.57;;;20.43;;
11777;SDS011;5946;51.770;8.548;2023-05-07T06:41:35;24.47;;;20.23;;
11777;SDS011;5946;51.770;8.548;2023-05-07T06:44:01;24.77;;;20.07;;
11777;SDS011;5946;51.770;8.548;2023-05-07T06:46:28;22.97;;;19.53;;
11777;SDS011;5946;51.770;8.548;2023-05-07T06:48:54;23.17;;;19.40;;
11777;SDS011;5946;51.770;8.548;2023-05-07T06:51:21;25.23;;;20.13;;
11777;SDS011;5946;51.770;8.548;2023-05-07T06:53:47;25.47;;;19.93;;
11777;SDS011;5946;51.770;8.548;2023-05-07T06:56:13;24.53;;;20.20;;
11777;SDS011;5946;51.770;8.548;2023-05-07T06:58:39;25.60;;;19.50;;
11777;SDS011;5946;51.770;8.548;2023-05-07T07:01:05;22.93;;;19.40;;
11777;SDS011;5946;51.770;8.548;2023-05-07T07:03:31;22.70;;;18.77;;
11777;SDS011;5946;51.770;8.548;2023-05-07T07:05:57;21.50;;;18.23;;
11777;SDS011;5946;51.770;8.548;2023-05-07T07:08:23;22.30;;;18.43;;
11777;SDS011;5946;51.770;8.548;2023-05-07T07:10:49;21.23;;;18.00;;
11777;SDS011;5946;51.770;8.548;2023-05-07T07:13:15;22.20;;;18.60;;
11777;SDS011;5946;51.770;8.548;2023-05-07T07:15:41;21.63;;;18.00;;
11777;SDS011;5946;51.770;8.548;2023-05-07T07:18:06;21.47;;;18.27;;
11777;SDS011;5946;51.770;8.548;2023-05-07T07:20:32;20.27;;;17.07;;
11777;SDS011;5946;51.770;8.548;2023-05-07T07:22:58;19.73;;;17.63;;
11777;SDS011;5946;51.770;8.548;2023-05-07T07:25:24;19.10;;;17.00;;
11777;SDS011;5946;51.770;8.548;2023-05-07T07:27:50;18.90;;;16.63;;
11777;SDS011;5946;51.770;8.548;2023-05-07T07:30:16;20.77;;;16.33;;
11777;SDS011;5946;51.770;8.548;2023-05-07T07:32:42;17.87;;;15.90;;
11777;SDS011;5946;51.770;8.548;2023-05-07T07:35:08;18.10;;;16.20;;
11777;SDS011;5946;51.770;8.548;2023-05-07T07:37:35;20.83;;;16.87;;
11777;SDS011;5946;51.770;8.548;2023-05-07T07:40:01;22.00;;;16.40;;
11777;SDS011;5946;51.770;8.548;2023-05-07T07:42:28;20.20;;;15.63;;
11777;SDS011;5946;51.770;8.548;2023-05-07T07:44:54;19.37;;;15.53;;
11777;SDS011;5946;51.770;8.548;2023-05-07T07:47:22;16.67;;;14.87;;
11777;SDS011;5946;51.770;8.548;2023-05-07T07:49:47;15.93;;;14.30;;
11777;SDS011;5946;51.770;8.548;2023-05-07T07:52:13;15.93;;;14.23;;
11777;SDS011;5946;51.770;8.548;2023-05-07T07:54:39;17.30;;;14.63;;
11777;SDS011;5946;51.770;8.548;2023-05-07T07:57:05;16.43;;;14.07;;
11777;SDS011;5946;51.770;8.548;2023-05-07T07:59:31;15.83;;;14.07;;
11777;SDS011;5946;51.770;8.548;2023-05-07T08:01:57;15.20;;;13.63;;
11777;SDS011;5946;51.770;8.548;2023-05-07T08:04:23;15.00;;;13.30;;
11777;SDS011;5946;51.770;8.548;2023-05-07T08:06:49;16.60;;;13.43;;
11777;SDS011;5946;51.770;8.548;2023-05-07T08:09:15;14.57;;;13.07;;
11777;SDS011;5946;51.770;8.548;2023-05-07T08:11:41;13.33;;;12.03;;
11777;SDS011;5946;51.770;8.548;2023-05-07T08:14:07;15.87;;;13.23;;
11777;SDS011;5946;51.770;8.548;2023-05-07T08:16:33;14.53;;;12.80;;
11777;SDS011;5946;51.770;8.548;2023-05-07T08:18:59;13.33;;;12.03;;
11777;SDS011;5946;51.770;8.548;2023-05-07T08:21:25;13.23;;;11.83;;
11777;SDS011;5946;51.770;8.548;2023-05-07T08:23:51;13.73;;;11.90;;
11777;SDS011;5946;51.770;8.548;2023-05-07T08:26:17;13.30;;;12.00;;
11777;SDS011;5946;51.770;8.548;2023-05-07T08:28:43;12.13;;;10.73;;
11777;SDS011;5946;51.770;8.548;2023-05-07T08:31:09;13.00;;;11.53;;
11777;SDS011;5946;51.770;8.548;2023-05-07T08:33:34;12.50;;;11.17;;
11777;SDS011;5946;51.770;8.548;2023-05-07T08:36:00;12.27;;;11.00;;
11777;SDS011;5946;51.770;8.548;2023-05-07T08:38:26;11.77;;;10.53;;
11777;SDS011;5946;51.770;8.548;2023-05-07T08:40:52;12.73;;;11.43;;
11777;SDS011;5946;51.770;8.548;2023-05-07T08:43:18;13.00;;;11.60;;
11777;SDS011;5946;51.770;8.548;2023-05-07T08:45:45;12.03;;;10.73;;
11777;SDS011;5946;51.770;8.548;2023-05-07T08:48:15;13.30;;;10.77;;
11777;SDS011;5946;51.770;8.548;2023-05-07T08:50:41;13.13;;;10.60;;
11777;SDS011;5946;51.770;8.548;2023-05-07T08:53:07;12.33;;;11.07;;
11777;SDS011;5946;51.770;8.548;2023-05-07T08:55:33;11.57;;;10.47;;
11777;SDS011;5946;51.770;8.548;2023-05-07T08:57:59;11.13;;;10.03;;
11777;SDS011;5946;51.770;8.548;2023-05-07T09:00:26;11.90;;;10.70;;
11777;SDS011;5946;51.770;8.548;2023-05-07T09:02:52;11.40;;;10.20;;
11777;SDS011;5946;51.770;8.548;2023-05-07T09:05:18;11.37;;;10.17;;
11777;SDS011;5946;51.770;8.548;2023-05-07T09:07:45;11.33;;;10.23;;
11777;SDS011;5946;51.770;8.548;2023-05-07T09:10:11;12.60;;;11.13;;
11777;SDS011;5946;51.770;8.548;2023-05-07T09:12:37;12.40;;;11.07;;
11777;SDS011;5946;51.770;8.548;2023-05-07T09:15:04;11.77;;;10.57;;
11777;SDS011;5946;51.770;8.548;2023-05-07T09:17:30;11.23;;;10.07;;
11777;SDS011;5946;51.770;8.548;2023-05-07T09:19:56;11.20;;;9.97;;
11777;SDS011;5946;51.770;8.548;2023-05-07T09:22:22;11.10;;;9.90;;
11777;SDS011;5946;51.770;8.548;2023-05-07T09:24:48;12.40;;;9.97;;
11777;SDS011;5946;51.770;8.548;2023-05-07T09:27:15;10.23;;;9.23;;
11777;SDS011;5946;51.770;8.548;2023-05-07T09:29:41;11.50;;;10.30;;
11777;SDS011;5946;51.770;8.548;2023-05-07T09:32:07;11.47;;;10.37;;
11777;SDS011;5946;51.770;8.548;2023-05-07T09:34:34;11.47;;;10.30;;
11777;SDS011;5946;51.770;8.548;2023-05-07T09:37:00;11.47;;;10.33;;
11777;SDS011;5946;51.770;8.548;2023-05-07T09:39:26;10.63;;;9.63;;
11777;SDS011;5946;51.770;8.548;2023-05-07T09:42:03;10.43;;;9.37;;
11777;SDS011;5946;51.770;8.548;2023-05-07T09:44:31;10.37;;;9.37;;
11777;SDS011;5946;51.770;8.548;2023-05-07T09:46:57;9.68;;;8.77;;
11777;SDS011;5946;51.770;8.548;2023-05-07T09:49:25;10.27;;;9.27;;
11777;SDS011;5946;51.770;8.548;2023-05-07T09:51:54;10.32;;;9.30;;
11777;SDS011;5946;51.770;8.548;2023-05-07T09:54:21;14.05;;;9.45;;
11777;SDS011;5946;51.770;8.548;2023-05-07T09:56:50;9.60;;;8.65;;
11777;SDS011;5946;51.770;8.548;2023-05-07T09:59:17;9.88;;;8.98;;
11777;SDS011;5946;51.770;8.548;2023-05-07T10:01:44;11.82;;;9.45;;
11777;SDS011;5946;51.770;8.548;2023-05-07T10:04:10;10.23;;;9.23;;
11777;SDS011;5946;51.770;8.548;2023-05-07T10:06:36;10.03;;;9.03;;
11777;SDS011;5946;51.770;8.548;2023-05-07T10:09:03;10.10;;;9.07;;
11777;SDS011;5946;51.770;8.548;2023-05-07T10:11:33;10.33;;;9.23;;
11777;SDS011;5946;51.770;8.548;2023-05-07T10:13:59;8.90;;;8.00;;
11777;SDS011;5946;51.770;8.548;2023-05-07T10:16:27;9.82;;;8.82;;
11777;SDS011;5946;51.770;8.548;2023-05-07T10:18:53;8.88;;;8.07;;
11777;SDS011;5946;51.770;8.548;2023-05-07T10:21:20;9.10;;;8.30;;
11777;SDS011;5946;51.770;8.548;2023-05-07T10:23:50;9.07;;;8.18;;
11777;SDS011;5946;51.770;8.548;2023-05-07T10:26:17;9.57;;;8.57;;
11777;SDS011;5946;51.770;8.548;2023-05-07T10:28:45;9.15;;;8.15;;
11777;SDS011;5946;51.770;8.548;2023-05-07T10:31:23;9.45;;;8.60;;
11777;SDS011;5946;51.770;8.548;2023-05-07T10:33:53;9.38;;;8.40;;
11777;SDS011;5946;51.770;8.548;2023-05-07T10:36:21;9.30;;;8.40;;
11777;SDS011;5946;51.770;8.548;2023-05-07T10:38:47;10.40;;;9.40;;
11777;SDS011;5946;51.770;8.548;2023-05-07T10:41:13;10.25;;;9.25;;
11777;SDS011;5946;51.770;8.548;2023-05-07T10:43:42;10.23;;;8.90;;
11777;SDS011;5946;51.770;8.548;2023-05-07T10:46:13;9.25;;;8.30;;
11777;SDS011;5946;51.770;8.548;2023-05-07T10:51:24;10.40;;;9.40;;
11777;SDS011;5946;51.770;8.548;2023-05-07T10:54:16;9.27;;;8.30;;
11777;SDS011;5946;51.770;8.548;2023-05-07T10:56:40;9.50;;;8.52;;
11777;SDS011;5946;51.770;8.548;2023-05-07T11:02:04;9.52;;;8.63;;
11777;SDS011;5946;51.770;8.548;2023-05-07T11:04:32;9.43;;;8.53;;
11777;SDS011;5946;51.770;8.548;2023-05-07T11:12:16;9.20;;;8.20;;
11777;SDS011;5946;51.770;8.548;2023-05-07T11:17:09;8.93;;;8.00;;
11777;SDS011;5946;51.770;8.548;2023-05-07T11:19:48;9.52;;;8.55;;
11777;SDS011;5946;51.770;8.548;2023-05-07T11:24:56;10.77;;;8.50;;
11777;SDS011;5946;51.770;8.548;2023-05-07T11:27:23;8.75;;;7.93;;
11777;SDS011;5946;51.770;8.548;2023-05-07T11:29:49;9.90;;;8.90;;
11777;SDS011;5946;51.770;8.548;2023-05-07T11:32:21;10.30;;;9.05;;
11777;SDS011;5946;51.770;8.548;2023-05-07T11:34:50;9.40;;;8.50;;
11777;SDS011;5946;51.770;8.548;2023-05-07T11:37:17;9.63;;;8.65;;
11777;SDS011;5946;51.770;8.548;2023-05-07T11:39:43;9.07;;;8.18;;
11777;SDS011;5946;51.770;8.548;2023-05-07T11:44:53;9.50;;;8.50;;
11777;SDS011;5946;51.770;8.548;2023-05-07T11:47:19;9.88;;;8.90;;
11777;SDS011;5946;51.770;8.548;2023-05-07T11:49:48;8.95;;;8.00;;
11777;SDS011;5946;51.770;8.548;2023-05-07T11:52:15;8.77;;;7.97;;
11777;SDS011;5946;51.770;8.548;2023-05-07T11:54:48;8.75;;;7.95;;
11777;SDS011;5946;51.770;8.548;2023-05-07T11:57:14;8.70;;;7.88;;
11777;SDS011;5946;51.770;8.548;2023-05-07T11:59:40;8.55;;;7.75;;
11777;SDS011;5946;51.770;8.548;2023-05-07T12:02:07;8.35;;;7.55;;
11777;SDS011;5946;51.770;8.548;2023-05-07T12:04:33;8.13;;;7.38;;
11777;SDS011;5946;51.770;8.548;2023-05-07T12:06:59;7.95;;;7.22;;
11777;SDS011;5946;51.770;8.548;2023-05-07T12:09:25;7.55;;;6.85;;
11777;SDS011;5946;51.770;8.548;2023-05-07T12:11:51;8.18;;;7.43;;
11777;SDS011;5946;51.770;8.548;2023-05-07T12:14:17;8.48;;;6.90;;
11777;SDS011;5946;51.770;8.548;2023-05-07T12:16:44;7.10;;;6.40;;
11777;SDS011;5946;51.770;8.548;2023-05-07T12:19:10;7.53;;;6.70;;
11777;SDS011;5946;51.770;8.548;2023-05-07T12:21:39;7.15;;;6.43;;
11777;SDS011;5946;51.770;8.548;2023-05-07T12:24:05;7.43;;;6.72;;
11777;SDS011;5946;51.770;8.548;2023-05-07T12:26:32;6.90;;;6.20;;
11777;SDS011;5946;51.770;8.548;2023-05-07T12:28:58;6.85;;;6.25;;
11777;SDS011;5946;51.770;8.548;2023-05-07T12:31:27;6.25;;;5.65;;
11777;SDS011;5946;51.770;8.548;2023-05-07T12:33:52;6.63;;;6.03;;
11777;SDS011;5946;51.770;8.548;2023-05-07T12:36:18;6.05;;;5.47;;
11777;SDS011;5946;51.770;8.548;2023-05-07T12:38:46;7.10;;;5.88;;
11777;SDS011;5946;51.770;8.548;2023-05-07T12:41:14;5.95;;;5.35;;
11777;SDS011;5946;51.770;8.548;2023-05-07T12:43:41;5.93;;;5.43;;
11777;SDS011;5946;51.770;8.548;2023-05-07T12:46:09;6.07;;;5.47;;
11777;SDS011;5946;51.770;8.548;2023-05-07T12:48:38;5.63;;;5.13;;
11777;SDS011;5946;51.770;8.548;2023-05-07T12:51:08;5.78;;;5.28;;
11777;SDS011;5946;51.770;8.548;2023-05-07T12:53:39;6.15;;;5.55;;
11777;SDS011;5946;51.770;8.548;2023-05-07T12:56:05;4.43;;;4.03;;
11777;SDS011;5946;51.770;8.548;2023-05-07T12:58:34;5.45;;;4.95;;
11777;SDS011;5946;51.770;8.548;2023-05-07T13:01:03;6.00;;;5.40;;
11777;SDS011;5946;51.770;8.548;2023-05-07T13:03:31;5.18;;;4.78;;
11777;SDS011;5946;51.770;8.548;2023-05-07T13:05:58;5.00;;;4.50;;
11777;SDS011;5946;51.770;8.548;2023-05-07T13:08:25;4.57;;;4.18;;
11777;SDS011;5946;51.770;8.548;2023-05-07T13:10:51;4.93;;;4.47;;
11777;SDS011;5946;51.770;8.548;2023-05-07T13:13:18;5.22;;;3.83;;
11777;SDS011;5946;51.770;8.548;2023-05-07T13:15:45;5.15;;;4.65;;
11777;SDS011;5946;51.770;8.548;2023-05-07T13:18:10;4.65;;;4.25;;
11777;SDS011;5946;51.770;8.548;2023-05-07T13:20:36;4.40;;;3.97;;
11777;SDS011;5946;51.770;8.548;2023-05-07T13:23:03;4.05;;;3.75;;
11777;SDS011;5946;51.770;8.548;2023-05-07T13:25:29;4.93;;;4.43;;
11777;SDS011;5946;51.770;8.548;2023-05-07T13:27:56;4.78;;;4.07;;
11777;SDS011;5946;51.770;8.548;2023-05-07T13:30:22;4.28;;;3.92;;
11777;SDS011;5946;51.770;8.548;2023-05-07T13:32:48;4.60;;;4.20;;
11777;SDS011;5946;51.770;8.548;2023-05-07T13:35:15;4.05;;;3.75;;
11777;SDS011;5946;51.770;8.548;2023-05-07T13:37:41;4.50;;;4.15;;
11777;SDS011;5946;51.770;8.548;2023-05-07T13:40:07;4.53;;;4.13;;
11777;SDS011;5946;51.770;8.548;2023-05-07T13:42:33;4.28;;;3.97;;
11777;SDS011;5946;51.770;8.548;2023-05-07T13:44:59;5.15;;;3.90;;
11777;SDS011;5946;51.770;8.548;2023-05-07T13:47:25;6.20;;;4.47;;
11777;SDS011;5946;51.770;8.548;2023-05-07T13:49:51;4.63;;;4.22;;
11777;SDS011;5946;51.770;8.548;2023-05-07T13:52:17;4.55;;;4.18;;
11777;SDS011;5946;51.770;8.548;2023-05-07T13:54:43;5.40;;;4.90;;
11777;SDS011;5946;51.770;8.548;2023-05-07T13:57:09;5.88;;;5.07;;
11777;SDS011;5946;51.770;8.548;2023-05-07T13:59:35;5.55;;;5.13;;
11777;SDS011;5946;51.770;8.548;2023-05-07T14:02:01;5.72;;;5.05;;
11777;SDS011;5946;51.770;8.548;2023-05-07T14:04:27;6.07;;;5.47;;
11777;SDS011;5946;51.770;8.548;2023-05-07T14:06:53;6.25;;;5.65;;
11777;SDS011;5946;51.770;8.548;2023-05-07T14:09:19;6.55;;;5.97;;
11777;SDS011;5946;51.770;8.548;2023-05-07T14:11:45;6.90;;;6.20;;
11777;SDS011;5946;51.770;8.548;2023-05-07T14:14:15;6.75;;;5.97;;
11777;SDS011;5946;51.770;8.548;2023-05-07T14:16:41;6.63;;;6.00;;
11777;SDS011;5946;51.770;8.548;2023-05-07T14:19:07;6.93;;;5.57;;
11777;SDS011;5946;51.770;8.548;2023-05-07T14:21:33;7.60;;;6.88;;
11777;SDS011;5946;51.770;8.548;2023-05-07T14:23:59;7.63;;;6.88;;
11777;SDS011;5946;51.770;8.548;2023-05-07T14:26:25;7.28;;;6.60;;
11777;SDS011;5946;51.770;8.548;2023-05-07T14:28:52;9.27;;;6.50;;
11777;SDS011;5946;51.770;8.548;2023-05-07T14:31:19;8.15;;;7.45;;
11777;SDS011;5946;51.770;8.548;2023-05-07T14:33:45;8.02;;;7.22;;
11777;SDS011;5946;51.770;8.548;2023-05-07T14:36:11;8.80;;;7.90;;
11777;SDS011;5946;51.770;8.548;2023-05-07T14:38:37;8.38;;;7.68;;
11777;SDS011;5946;51.770;8.548;2023-05-07T14:41:03;9.82;;;8.57;;
11777;SDS011;5946;51.770;8.548;2023-05-07T14:43:29;8.95;;;8.05;;
11777;SDS011;5946;51.770;8.548;2023-05-07T14:45:55;8.95;;;8.05;;
11777;SDS011;5946;51.770;8.548;2023-05-07T14:48:21;9.00;;;8.20;;
11777;SDS011;5946;51.770;8.548;2023-05-07T14:50:47;10.32;;;9.32;;
11777;SDS011;5946;51.770;8.548;2023-05-07T14:53:13;9.23;;;8.40;;
11777;SDS011;5946;51.770;8.548;2023-05-07T14:55:39;10.82;;;8.55;;
11777;SDS011;5946;51.770;8.548;2023-05-07T14:58:05;11.15;;;8.70;;